sensor_id;sensor_type;location;lat;lon;timestamp;pressure;altitude;pressure_sealevel;temperature;humidity
56671;BME280;42545;50.054;8.306;2023-07-29T00:00:41;99371.28;;;17.44;100.00
56671;BME280;42545;50.054;8.306;2023-07-29T00:03:08;99373.94;;;17.45;100.00
56671;BME280;42545;50.054;8.306;2023-07-29T00:05:35;99374.78;;;17.47;100.00
56671;BME280;42545;50.054;8.306;2023-07-29T00:08:02;99371.19;;;17.48;100.00
56671;BME280;42545;50.054;8.306;2023-07-29T00:10:31;99359.56;;;17.51;100.00
56671;BME280;42545;50.054;8.306;2023-07-29T00:12:58;99360.50;;;17.48;100.00
56671;BME280;42545;50.054;8.306;2023-07-29T00:15:25;99352.50;;;17.48;100.00
56671;BME280;42545;50.054;8.306;2023-07-29T00:17:51;99353.41;;;17.49;100.00
56671;BME280;42545;50.054;8.306;2023-07-29T00:20:19;99355.16;;;17.50;100.00
56671;BME280;42545;50.054;8.306;2023-07-29T00:22:46;99355.16;;;17.48;100.00
56671;BME280;42545;50.054;8.306;2023-07-29T00:25:15;99349.94;;;17.45;100.00
56671;BME280;42545;50.054;8.306;2023-07-29T00:27:43;99348.19;;;17.43;100.00
56671;BME280;42545;50.054;8.306;2023-07-29T00:30:11;99349.16;;;17.40;100.00
56671;BME280;42545;50.054;8.306;2023-07-29T00:32:37;99338.50;;;17.39;100.00
56671;BME280;42545;50.054;8.306;2023-07-29T00:35:05;99330.53;;;17.37;100.00
56671;BME280;42545;50.054;8.306;2023-07-29T00:37:32;99330.56;;;17.36;100.00
56671;BME280;42545;50.054;8.306;2023-07-29T00:39:59;99336.84;;;17.35;100.00
56671;BME280;42545;50.054;8.306;2023-07-29T00:42:26;99331.53;;;17.33;100.00
56671;BME280;42545;50.054;8.306;2023-07-29T00:44:55;99329.84;;;17.31;100.00
56671;BME280;42545;50.054;8.306;2023-07-29T00:47:22;99317.63;;;17.19;100.00
56671;BME280;42545;50.054;8.306;2023-07-29T00:49:51;99328.19;;;17.25;100.00
56671;BME280;42545;50.054;8.306;2023-07-29T00:52:18;99326.44;;;17.22;100.00
56671;BME280;42545;50.054;8.306;2023-07-29T00:54:45;99323.78;;;17.22;100.00
56671;BME280;42545;50.054;8.306;2023-07-29T00:57:13;99326.28;;;17.28;100.00
56671;BME280;42545;50.054;8.306;2023-07-29T00:59:42;99313.84;;;17.31;100.00
56671;BME280;42545;50.054;8.306;2023-07-29T01:02:10;99310.34;;;17.27;100.00
56671;BME280;42545;50.054;8.306;2023-07-29T01:04:38;99317.31;;;17.34;100.00
56671;BME280;42545;50.054;8.306;2023-07-29T01:07:12;99319.91;;;17.36;100.00
56671;BME280;42545;50.054;8.306;2023-07-29T01:09:50;99319.00;;;17.37;100.00
56671;BME280;42545;50.054;8.306;2023-07-29T01:12:23;99310.97;;;17.38;100.00
56671;BME280;42545;50.054;8.306;2023-07-29T01:14:58;99301.22;;;17.37;100.00
56671;BME280;42545;50.054;8.306;2023-07-29T01:17:32;99295.00;;;17.37;100.00
56671;BME280;42545;50.054;8.306;2023-07-29T01:20:02;99288.84;;;17.35;100.00
56671;BME280;42545;50.054;8.306;2023-07-29T01:22:34;99294.19;;;17.35;100.00
56671;BME280;42545;50.054;8.306;2023-07-29T01:25:04;99298.63;;;17.34;100.00
56671;BME280;42545;50.054;8.306;2023-07-29T01:27:31;99304.00;;;17.33;100.00
56671;BME280;42545;50.054;8.306;2023-07-29T01:29:58;99307.53;;;17.33;100.00
56671;BME280;42545;50.054;8.306;2023-07-29T01:32:29;99312.91;;;17.32;100.00
56671;BME280;42545;50.054;8.306;2023-07-29T01:35:03;99312.94;;;17.30;100.00
56671;BME280;42545;50.054;8.306;2023-07-29T01:37:34;99313.88;;;17.27;100.00
56671;BME280;42545;50.054;8.306;2023-07-29T01:40:04;99306.69;;;17.31;100.00
56671;BME280;42545;50.054;8.306;2023-07-29T01:42:31;99298.63;;;17.34;100.00
56671;BME280;42545;50.054;8.306;2023-07-29T01:44:59;99303.00;;;17.37;100.00
56671;BME280;42545;50.054;8.306;2023-07-29T01:47:26;99296.72;;;17.39;100.00
56671;BME280;42545;50.054;8.306;2023-07-29T01:49:53;99295.84;;;17.39;100.00
56671;BME280;42545;50.054;8.306;2023-07-29T01:52:20;99302.06;;;17.39;100.00
56671;BME280;42545;50.054;8.306;2023-07-29T01:54:48;99298.50;;;17.40;100.00
56671;BME280;42545;50.054;8.306;2023-07-29T01:57:16;99298.44;;;17.42;100.00
56671;BME280;42545;50.054;8.306;2023-07-29T01:59:43;99294.00;;;17.42;100.00
56671;BME280;42545;50.054;8.306;2023-07-29T02:02:09;99283.25;;;17.45;100.00
56671;BME280;42545;50.054;8.306;2023-07-29T02:04:37;99276.13;;;17.46;100.00
56671;BME280;42545;50.054;8.306;2023-07-29T02:07:04;99283.16;;;17.48;100.00
56671;BME280;42545;50.054;8.306;2023-07-29T02:09:31;99280.47;;;17.50;100.00
56671;BME280;42545;50.054;8.306;2023-07-29T02:11:57;99261.22;;;17.37;100.00
56671;BME280;42545;50.054;8.306;2023-07-29T02:14:26;99287.53;;;17.53;100.00
56671;BME280;42545;50.054;8.306;2023-07-29T02:16:52;99288.44;;;17.52;100.00
56671;BME280;42545;50.054;8.306;2023-07-29T02:19:19;99283.84;;;17.58;100.00
56671;BME280;42545;50.054;8.306;2023-07-29T02:21:46;99279.38;;;17.59;100.00
56671;BME280;42545;50.054;8.306;2023-07-29T02:24:13;99289.19;;;17.57;100.00
56671;BME280;42545;50.054;8.306;2023-07-29T02:26:41;99281.13;;;17.60;100.00
56671;BME280;42545;50.054;8.306;2023-07-29T02:29:07;99271.28;;;17.62;100.00
56671;BME280;42545;50.054;8.306;2023-07-29T02:31:36;99267.84;;;17.58;100.00
56671;BME280;42545;50.054;8.306;2023-07-29T02:34:03;99281.97;;;17.62;100.00
56671;BME280;42545;50.054;8.306;2023-07-29T02:36:30;99277.63;;;17.58;100.00
56671;BME280;42545;50.054;8.306;2023-07-29T02:38:57;99265.19;;;17.57;100.00
56671;BME280;42545;50.054;8.306;2023-07-29T02:41:24;99253.66;;;17.56;100.00
56671;BME280;42545;50.054;8.306;2023-07-29T02:43:51;99256.28;;;17.58;100.00
56671;BME280;42545;50.054;8.306;2023-07-29T02:46:18;99261.56;;;17.59;100.00
56671;BME280;42545;50.054;8.306;2023-07-29T02:48:47;99258.09;;;17.56;100.00
56671;BME280;42545;50.054;8.306;2023-07-29T02:51:14;99256.41;;;17.53;100.00
56671;BME280;42545;50.054;8.306;2023-07-29T02:53:42;99251.13;;;17.50;100.00
56671;BME280;42545;50.054;8.306;2023-07-29T02:56:09;99247.59;;;17.49;100.00
56671;BME280;42545;50.054;8.306;2023-07-29T02:58:37;99241.41;;;17.47;100.00
56671;BME280;42545;50.054;8.306;2023-07-29T03:01:05;99238.81;;;17.44;100.00
56671;BME280;42545;50.054;8.306;2023-07-29T03:03:32;99245.16;;;17.40;100.00
56671;BME280;42545;50.054;8.306;2023-07-29T03:06:03;99235.44;;;17.38;100.00
56671;BME280;42545;50.054;8.306;2023-07-29T03:08:30;99234.59;;;17.36;100.00
56671;BME280;42545;50.054;8.306;2023-07-29T03:10:57;99227.50;;;17.35;100.00
56671;BME280;42545;50.054;8.306;2023-07-29T03:13:24;99229.22;;;17.37;100.00
56671;BME280;42545;50.054;8.306;2023-07-29T03:15:51;99231.88;;;17.37;100.00
56671;BME280;42545;50.054;8.306;2023-07-29T03:18:18;99230.06;;;17.39;100.00
56671;BME280;42545;50.054;8.306;2023-07-29T03:20:45;99230.00;;;17.42;100.00
56671;BME280;42545;50.054;8.306;2023-07-29T03:23:13;99229.91;;;17.45;100.00
56671;BME280;42545;50.054;8.306;2023-07-29T03:25:40;99228.94;;;17.48;100.00
56671;BME280;42545;50.054;8.306;2023-07-29T03:28:07;99231.69;;;17.45;100.00
56671;BME280;42545;50.054;8.306;2023-07-29T03:30:34;99232.44;;;17.50;100.00
56671;BME280;42545;50.054;8.306;2023-07-29T03:33:02;99236.84;;;17.53;100.00
56671;BME280;42545;50.054;8.306;2023-07-29T03:35:29;99231.56;;;17.51;100.00
56671;BME280;42545;50.054;8.306;2023-07-29T03:37:56;99225.28;;;17.52;100.00
56671;BME280;42545;50.054;8.306;2023-07-29T03:40:25;99225.34;;;17.51;100.00
56671;BME280;42545;50.054;8.306;2023-07-29T03:42:51;99223.56;;;17.51;100.00
56671;BME280;42545;50.054;8.306;2023-07-29T03:45:18;99215.59;;;17.49;100.00
56671;BME280;42545;50.054;8.306;2023-07-29T03:47:45;99210.28;;;17.48;100.00
56671;BME280;42545;50.054;8.306;2023-07-29T03:50:12;99210.25;;;17.49;100.00
56671;BME280;42545;50.054;8.306;2023-07-29T03:52:39;99212.91;;;17.49;100.00
56671;BME280;42545;50.054;8.306;2023-07-29T03:55:07;99209.47;;;17.44;100.00
56671;BME280;42545;50.054;8.306;2023-07-29T03:57:36;99216.41;;;17.52;100.00
56671;BME280;42545;50.054;8.306;2023-07-29T04:00:04;99214.69;;;17.51;100.00
56671;BME280;42545;50.054;8.306;2023-07-29T04:02:31;99216.44;;;17.50;100.00
56671;BME280;42545;50.054;8.306;2023-07-29T04:04:58;99219.13;;;17.50;100.00
56671;BME280;42545;50.054;8.306;2023-07-29T04:07:24;99224.44;;;17.50;100.00
56671;BME280;42545;50.054;8.306;2023-07-29T04:09:51;99214.75;;;17.47;100.00
56671;BME280;42545;50.054;8.306;2023-07-29T04:12:18;99219.09;;;17.52;100.00
56671;BME280;42545;50.054;8.306;2023-07-29T04:14:48;99222.69;;;17.51;100.00
56671;BME280;42545;50.054;8.306;2023-07-29T04:17:15;99212.03;;;17.51;100.00
56671;BME280;42545;50.054;8.306;2023-07-29T04:19:42;99216.38;;;17.53;100.00
56671;BME280;42545;50.054;8.306;2023-07-29T04:22:09;99208.41;;;17.52;100.00
56671;BME280;42545;50.054;8.306;2023-07-29T04:24:36;99209.19;;;17.57;100.00
56671;BME280;42545;50.054;8.306;2023-07-29T04:27:03;99210.09;;;17.56;100.00
56671;BME280;42545;50.054;8.306;2023-07-29T04:29:30;99209.22;;;17.55;100.00
56671;BME280;42545;50.054;8.306;2023-07-29T04:31:58;99214.56;;;17.55;100.00
56671;BME280;42545;50.054;8.306;2023-07-29T04:34:26;99205.75;;;17.52;100.00
56671;BME280;42545;50.054;8.306;2023-07-29T04:36:53;99211.94;;;17.52;100.00
56671;BME280;42545;50.054;8.306;2023-07-29T04:39:19;99202.19;;;17.53;100.00
56671;BME280;42545;50.054;8.306;2023-07-29T04:41:46;99203.13;;;17.50;100.00
56671;BME280;42545;50.054;8.306;2023-07-29T04:44:13;99210.25;;;17.49;100.00
56671;BME280;42545;50.054;8.306;2023-07-29T04:46:40;99203.25;;;17.45;100.00
56671;BME280;42545;50.054;8.306;2023-07-29T04:49:09;99207.63;;;17.48;100.00
56671;BME280;42545;50.054;8.306;2023-07-29T04:51:36;99203.16;;;17.48;100.00
56671;BME280;42545;50.054;8.306;2023-07-29T04:54:03;99209.38;;;17.49;100.00
56671;BME280;42545;50.054;8.306;2023-07-29T04:56:29;99204.91;;;17.49;100.00
56671;BME280;42545;50.054;8.306;2023-07-29T04:58:56;99203.13;;;17.50;100.00
56671;BME280;42545;50.054;8.306;2023-07-29T05:01:23;99210.19;;;17.53;100.00
56671;BME280;42545;50.054;8.306;2023-07-29T05:03:50;99206.75;;;17.47;100.00
56671;BME280;42545;50.054;8.306;2023-07-29T05:06:18;99206.59;;;17.54;100.00
56671;BME280;42545;50.054;8.306;2023-07-29T05:08:46;99211.00;;;17.55;100.00
56671;BME280;42545;50.054;8.306;2023-07-29T05:11:12;99203.00;;;17.55;100.00
56671;BME280;42545;50.054;8.306;2023-07-29T05:13:39;99197.66;;;17.56;100.00
56671;BME280;42545;50.054;8.306;2023-07-29T05:16:06;99210.84;;;17.61;100.00
56671;BME280;42545;50.054;8.306;2023-07-29T05:18:34;99194.84;;;17.61;100.00
56671;BME280;42545;50.054;8.306;2023-07-29T05:21:01;99200.06;;;17.65;100.00
56671;BME280;42545;50.054;8.306;2023-07-29T05:23:29;99208.94;;;17.66;100.00
56671;BME280;42545;50.054;8.306;2023-07-29T05:25:56;99212.56;;;17.63;100.00
56671;BME280;42545;50.054;8.306;2023-07-29T05:28:23;99221.31;;;17.68;100.00
56671;BME280;42545;50.054;8.306;2023-07-29T05:30:49;99210.59;;;17.70;100.00
56671;BME280;42545;50.054;8.306;2023-07-29T05:33:16;99215.84;;;17.75;100.00
56671;BME280;42545;50.054;8.306;2023-07-29T05:35:43;99222.84;;;17.79;100.00
56671;BME280;42545;50.054;8.306;2023-07-29T05:38:12;99216.53;;;17.81;100.00
56671;BME280;42545;50.054;8.306;2023-07-29T05:40:41;99223.59;;;17.84;100.00
56671;BME280;42545;50.054;8.306;2023-07-29T05:43:08;99227.16;;;17.83;100.00
56671;BME280;42545;50.054;8.306;2023-07-29T05:45:34;99228.94;;;17.85;100.00
56671;BME280;42545;50.054;8.306;2023-07-29T05:48:01;99221.78;;;17.86;100.00
56671;BME280;42545;50.054;8.306;2023-07-29T05:50:28;99232.47;;;17.86;100.00
56671;BME280;42545;50.054;8.306;2023-07-29T05:52:55;99230.69;;;17.85;100.00
56671;BME280;42545;50.054;8.306;2023-07-29T05:55:22;99235.13;;;17.86;100.00
56671;BME280;42545;50.054;8.306;2023-07-29T05:57:51;99244.00;;;17.86;100.00
56671;BME280;42545;50.054;8.306;2023-07-29T06:00:18;99256.47;;;17.86;100.00
56671;BME280;42545;50.054;8.306;2023-07-29T06:02:45;99264.50;;;17.84;100.00
56671;BME280;42545;50.054;8.306;2023-07-29T06:05:12;99260.94;;;17.84;100.00
56671;BME280;42545;50.054;8.306;2023-07-29T06:07:39;99242.31;;;17.82;100.00
56671;BME280;42545;50.054;8.306;2023-07-29T06:10:09;99240.47;;;17.86;100.00
56671;BME280;42545;50.054;8.306;2023-07-29T06:12:37;99245.81;;;17.86;100.00
56671;BME280;42545;50.054;8.306;2023-07-29T06:15:06;99238.63;;;17.88;100.00
56671;BME280;42545;50.054;8.306;2023-07-29T06:17:33;99225.34;;;17.85;100.00
56671;BME280;42545;50.054;8.306;2023-07-29T06:19:59;99242.28;;;17.85;100.00
56671;BME280;42545;50.054;8.306;2023-07-29T06:22:26;99241.41;;;17.83;100.00
56671;BME280;42545;50.054;8.306;2023-07-29T06:24:53;99230.84;;;17.79;100.00
56671;BME280;42545;50.054;8.306;2023-07-29T06:27:20;99228.97;;;17.82;100.00
56671;BME280;42545;50.054;8.306;2023-07-29T06:29:47;99215.66;;;17.81;100.00
56671;BME280;42545;50.054;8.306;2023-07-29T06:32:15;99223.63;;;17.82;100.00
56671;BME280;42545;50.054;8.306;2023-07-29T06:34:42;99228.13;;;17.80;100.00
56671;BME280;42545;50.054;8.306;2023-07-29T06:37:09;99231.66;;;17.81;100.00
56671;BME280;42545;50.054;8.306;2023-07-29T06:39:35;99243.28;;;17.80;100.00
56671;BME280;42545;50.054;8.306;2023-07-29T06:42:03;99238.88;;;17.77;100.00
56671;BME280;42545;50.054;8.306;2023-07-29T06:44:29;99257.56;;;17.77;100.00
56671;BME280;42545;50.054;8.306;2023-07-29T06:46:57;99260.19;;;17.79;100.00
56671;BME280;42545;50.054;8.306;2023-07-29T06:49:25;99257.59;;;17.76;100.00
56671;BME280;42545;50.054;8.306;2023-07-29T06:51:52;99244.22;;;17.77;100.00
56671;BME280;42545;50.054;8.306;2023-07-29T06:54:24;99225.53;;;17.77;100.00
56671;BME280;42545;50.054;8.306;2023-07-29T06:56:51;99191.88;;;17.72;100.00
56671;BME280;42545;50.054;8.306;2023-07-29T06:59:17;99196.38;;;17.71;100.00
56671;BME280;42545;50.054;8.306;2023-07-29T07:01:44;99223.00;;;17.73;100.00
56671;BME280;42545;50.054;8.306;2023-07-29T07:04:11;99231.94;;;17.70;100.00
56671;BME280;42545;50.054;8.306;2023-07-29T07:06:39;99236.34;;;17.73;100.00
56671;BME280;42545;50.054;8.306;2023-07-29T07:09:06;99249.56;;;17.77;100.00
56671;BME280;42545;50.054;8.306;2023-07-29T07:11:33;99255.66;;;17.82;100.00
56671;BME280;42545;50.054;8.306;2023-07-29T07:14:00;99266.28;;;17.84;100.00
56671;BME280;42545;50.054;8.306;2023-07-29T07:16:27;99268.06;;;17.85;100.00
56671;BME280;42545;50.054;8.306;2023-07-29T07:18:56;99271.53;;;17.89;100.00
56671;BME280;42545;50.054;8.306;2023-07-29T07:21:24;99269.72;;;17.91;100.00
56671;BME280;42545;50.054;8.306;2023-07-29T07:23:52;99270.47;;;17.94;100.00
56671;BME280;42545;50.054;8.306;2023-07-29T07:26:19;99264.25;;;17.95;100.00
56671;BME280;42545;50.054;8.306;2023-07-29T07:28:45;99271.28;;;17.98;100.00
56671;BME280;42545;50.054;8.306;2023-07-29T07:31:12;99277.53;;;17.98;100.00
56671;BME280;42545;50.054;8.306;2023-07-29T07:33:41;99266.00;;;17.96;100.00
56671;BME280;42545;50.054;8.306;2023-07-29T07:36:08;99279.28;;;17.98;100.00
56671;BME280;42545;50.054;8.306;2023-07-29T07:38:35;99275.69;;;18.00;100.00
56671;BME280;42545;50.054;8.306;2023-07-29T07:41:03;99266.88;;;17.97;100.00
56671;BME280;42545;50.054;8.306;2023-07-29T07:43:30;99274.84;;;17.98;100.00
56671;BME280;42545;50.054;8.306;2023-07-29T07:46:00;99285.56;;;17.97;100.00
56671;BME280;42545;50.054;8.306;2023-07-29T07:48:28;99278.44;;;17.96;100.00
56671;BME280;42545;50.054;8.306;2023-07-29T07:50:55;99284.72;;;17.95;100.00
56671;BME280;42545;50.054;8.306;2023-07-29T07:53:22;99282.91;;;17.97;100.00
56671;BME280;42545;50.054;8.306;2023-07-29T07:55:50;99282.81;;;18.00;100.00
56671;BME280;42545;50.054;8.306;2023-07-29T07:58:19;99291.56;;;18.05;100.00
56671;BME280;42545;50.054;8.306;2023-07-29T08:00:46;99290.50;;;18.11;100.00
56671;BME280;42545;50.054;8.306;2023-07-29T08:03:13;99292.16;;;18.16;100.00
56671;BME280;42545;50.054;8.306;2023-07-29T08:05:39;99289.16;;;18.29;100.00
56671;BME280;42545;50.054;8.306;2023-07-29T08:08:06;99286.19;;;18.39;100.00
56671;BME280;42545;50.054;8.306;2023-07-29T08:10:33;99280.72;;;18.44;100.00
56671;BME280;42545;50.054;8.306;2023-07-29T08:13:01;99282.28;;;18.53;100.00
56671;BME280;42545;50.054;8.306;2023-07-29T08:15:29;99270.66;;;18.54;100.00
56671;BME280;42545;50.054;8.306;2023-07-29T08:17:56;99275.69;;;18.64;100.00
56671;BME280;42545;50.054;8.306;2023-07-29T08:20:22;99278.28;;;18.68;100.00
56671;BME280;42545;50.054;8.306;2023-07-29T08:22:50;99274.63;;;18.70;100.00
56671;BME280;42545;50.054;8.306;2023-07-29T08:25:16;99271.00;;;18.73;100.00
56671;BME280;42545;50.054;8.306;2023-07-29T08:27:43;99265.47;;;18.79;100.00
56671;BME280;42545;50.054;8.306;2023-07-29T08:30:10;99272.38;;;18.88;100.00
56671;BME280;42545;50.054;8.306;2023-07-29T08:32:38;99273.03;;;18.94;100.00
56671;BME280;42545;50.054;8.306;2023-07-29T08:35:06;99282.78;;;18.97;100.00
56671;BME280;42545;50.054;8.306;2023-07-29T08:37:34;99278.25;;;18.99;100.00
56671;BME280;42545;50.054;8.306;2023-07-29T08:40:00;99280.94;;;18.99;100.00
56671;BME280;42545;50.054;8.306;2023-07-29T08:42:30;99278.25;;;18.99;100.00
56671;BME280;42545;50.054;8.306;2023-07-29T08:45:01;99271.75;;;19.08;100.00
56671;BME280;42545;50.054;8.306;2023-07-29T08:47:32;99271.84;;;19.05;100.00
56671;BME280;42545;50.054;8.306;2023-07-29T08:50:01;99276.03;;;19.13;100.00
56671;BME280;42545;50.054;8.306;2023-07-29T08:52:30;99267.72;;;19.23;100.00
56671;BME280;42545;50.054;8.306;2023-07-29T08:54:59;99273.81;;;19.28;100.00
56671;BME280;42545;50.054;8.306;2023-07-29T08:57:26;99277.31;;;19.30;100.00
56671;BME280;42545;50.054;8.306;2023-07-29T08:59:53;99269.28;;;19.30;100.00
56671;BME280;42545;50.054;8.306;2023-07-29T09:02:21;99280.72;;;19.35;100.00
56671;BME280;42545;50.054;8.306;2023-07-29T09:04:48;99277.16;;;19.34;100.00
56671;BME280;42545;50.054;8.306;2023-07-29T09:07:17;99279.97;;;19.30;100.00
56671;BME280;42545;50.054;8.306;2023-07-29T09:09:44;99282.78;;;19.25;100.00
56671;BME280;42545;50.054;8.306;2023-07-29T09:12:12;99273.91;;;19.25;100.00
56671;BME280;42545;50.054;8.306;2023-07-29T09:14:39;99281.75;;;19.29;100.00
56671;BME280;42545;50.054;8.306;2023-07-29T09:17:07;99281.59;;;19.35;100.00
56671;BME280;42545;50.054;8.306;2023-07-29T09:19:34;99274.94;;;19.47;100.00
56671;BME280;42545;50.054;8.306;2023-07-29T09:22:01;99276.53;;;19.53;100.00
56671;BME280;42545;50.054;8.306;2023-07-29T09:24:31;99280.91;;;19.57;100.00
56671;BME280;42545;50.054;8.306;2023-07-29T09:26:59;99279.91;;;19.59;100.00
56671;BME280;42545;50.054;8.306;2023-07-29T09:29:28;99275.38;;;19.62;100.00
56671;BME280;42545;50.054;8.306;2023-07-29T09:32:18;99281.69;;;19.61;100.00
56671;BME280;42545;50.054;8.306;2023-07-29T09:34:45;99286.00;;;19.65;100.00
56671;BME280;42545;50.054;8.306;2023-07-29T09:37:15;99286.63;;;19.73;100.00
56671;BME280;42545;50.054;8.306;2023-07-29T09:39:46;99288.41;;;19.72;100.00
56671;BME280;42545;50.054;8.306;2023-07-29T09:42:17;99279.41;;;19.75;100.00
56671;BME280;42545;50.054;8.306;2023-07-29T09:44:44;99282.09;;;19.75;100.00
56671;BME280;42545;50.054;8.306;2023-07-29T09:47:19;99276.84;;;19.72;100.00
56671;BME280;42545;50.054;8.306;2023-07-29T09:49:45;99271.28;;;19.78;100.00
56671;BME280;42545;50.054;8.306;2023-07-29T09:52:14;99272.06;;;19.82;100.00
56671;BME280;42545;50.054;8.306;2023-07-29T09:54:42;99260.59;;;19.78;100.00
56671;BME280;42545;50.054;8.306;2023-07-29T09:57:11;99264.81;;;19.85;100.00
56671;BME280;42545;50.054;8.306;2023-07-29T09:59:38;99264.53;;;19.93;100.00
56671;BME280;42545;50.054;8.306;2023-07-29T10:02:09;99265.06;;;20.04;100.00
56671;BME280;42545;50.054;8.306;2023-07-29T10:04:41;99256.84;;;20.09;100.00
56671;BME280;42545;50.054;8.306;2023-07-29T10:07:09;99260.28;;;20.12;100.00
56671;BME280;42545;50.054;8.306;2023-07-29T10:09:36;99260.19;;;20.15;100.00
56671;BME280;42545;50.054;8.306;2023-07-29T10:12:06;99266.41;;;20.16;100.00
56671;BME280;42545;50.054;8.306;2023-07-29T10:14:36;99262.69;;;20.20;100.00
56671;BME280;42545;50.054;8.306;2023-07-29T10:17:05;99263.47;;;20.24;100.00
56671;BME280;42545;50.054;8.306;2023-07-29T10:19:32;99261.41;;;20.32;100.00
56671;BME280;42545;50.054;8.306;2023-07-29T10:22:00;99255.91;;;20.35;100.00
56671;BME280;42545;50.054;8.306;2023-07-29T10:24:30;99261.06;;;20.41;100.00
56671;BME280;42545;50.054;8.306;2023-07-29T10:26:58;99267.19;;;20.45;100.00
56671;BME280;42545;50.054;8.306;2023-07-29T10:29:29;99259.09;;;20.46;100.00
56671;BME280;42545;50.054;8.306;2023-07-29T10:32:01;99250.50;;;20.60;100.00
56671;BME280;42545;50.054;8.306;2023-07-29T10:34:29;99260.31;;;20.63;100.00
56671;BME280;42545;50.054;8.306;2023-07-29T10:36:57;99257.84;;;20.55;100.00
56671;BME280;42545;50.054;8.306;2023-07-29T10:39:25;99260.66;;;20.52;100.00
56671;BME280;42545;50.054;8.306;2023-07-29T10:41:57;99264.44;;;20.46;100.00
56671;BME280;42545;50.054;8.306;2023-07-29T10:44:47;99261.91;;;20.42;100.00
56671;BME280;42545;50.054;8.306;2023-07-29T10:47:17;99260.28;;;20.38;100.00
56671;BME280;42545;50.054;8.306;2023-07-29T10:49:49;99250.69;;;20.32;100.00
56671;BME280;42545;50.054;8.306;2023-07-29T10:52:29;99252.59;;;20.28;100.00
56671;BME280;42545;50.054;8.306;2023-07-29T10:54:56;99255.31;;;20.27;100.00
56671;BME280;42545;50.054;8.306;2023-07-29T10:57:32;99251.81;;;20.25;100.00
56671;BME280;42545;50.054;8.306;2023-07-29T10:59:59;99257.38;;;20.19;100.00
56671;BME280;42545;50.054;8.306;2023-07-29T11:02:32;99258.28;;;20.19;100.00
56671;BME280;42545;50.054;8.306;2023-07-29T11:05:04;99265.22;;;20.25;100.00
56671;BME280;42545;50.054;8.306;2023-07-29T11:07:43;99250.06;;;20.24;100.00
56671;BME280;42545;50.054;8.306;2023-07-29T11:10:12;99249.00;;;20.28;100.00
56671;BME280;42545;50.054;8.306;2023-07-29T11:12:42;99254.88;;;20.39;100.00
56671;BME280;42545;50.054;8.306;2023-07-29T11:15:16;99233.09;;;20.48;100.00
56671;BME280;42545;50.054;8.306;2023-07-29T11:17:46;99234.31;;;20.65;100.00
56671;BME280;42545;50.054;8.306;2023-07-29T11:20:14;99233.75;;;20.79;100.00
56671;BME280;42545;50.054;8.306;2023-07-29T11:22:42;99240.28;;;20.95;100.00
56671;BME280;42545;50.054;8.306;2023-07-29T11:25:10;99233.31;;;21.13;100.00
56671;BME280;42545;50.054;8.306;2023-07-29T11:27:37;99237.88;;;21.33;100.00
56671;BME280;42545;50.054;8.306;2023-07-29T11:30:07;99228.91;;;21.56;100.00
56671;BME280;42545;50.054;8.306;2023-07-29T11:32:35;99239.78;;;21.74;100.00
56671;BME280;42545;50.054;8.306;2023-07-29T11:35:06;99235.97;;;21.79;100.00
56671;BME280;42545;50.054;8.306;2023-07-29T11:37:35;99239.16;;;21.89;100.00
56671;BME280;42545;50.054;8.306;2023-07-29T11:40:03;99231.50;;;22.00;100.00
56671;BME280;42545;50.054;8.306;2023-07-29T11:42:31;99216.72;;;22.11;100.00
56671;BME280;42545;50.054;8.306;2023-07-29T11:44:59;99220.66;;;22.22;98.54
56671;BME280;42545;50.054;8.306;2023-07-29T11:47:26;99224.94;;;22.28;96.63
56671;BME280;42545;50.054;8.306;2023-07-29T11:49:52;99211.28;;;22.33;95.40
56671;BME280;42545;50.054;8.306;2023-07-29T11:52:21;99216.81;;;22.30;91.99
56671;BME280;42545;50.054;8.306;2023-07-29T11:54:49;99218.78;;;22.24;92.76
56671;BME280;42545;50.054;8.306;2023-07-29T11:57:16;99229.94;;;22.15;92.03
56671;BME280;42545;50.054;8.306;2023-07-29T11:59:45;99231.22;;;22.06;93.10
56671;BME280;42545;50.054;8.306;2023-07-29T12:02:14;99225.84;;;22.06;93.83
56671;BME280;42545;50.054;8.306;2023-07-29T12:04:43;99222.84;;;22.14;92.72
56671;BME280;42545;50.054;8.306;2023-07-29T12:07:10;99222.50;;;22.22;92.47
56671;BME280;42545;50.054;8.306;2023-07-29T12:09:42;99218.47;;;22.32;93.11
56671;BME280;42545;50.054;8.306;2023-07-29T12:12:09;99214.13;;;22.49;91.55
56671;BME280;42545;50.054;8.306;2023-07-29T12:14:38;99206.38;;;22.61;88.40
56671;BME280;42545;50.054;8.306;2023-07-29T12:17:06;99210.69;;;22.65;84.56
56671;BME280;42545;50.054;8.306;2023-07-29T12:19:33;99209.53;;;22.71;84.30
56671;BME280;42545;50.054;8.306;2023-07-29T12:22:01;99208.72;;;22.88;84.89
56671;BME280;42545;50.054;8.306;2023-07-29T12:24:29;99205.66;;;22.96;81.49
56671;BME280;42545;50.054;8.306;2023-07-29T12:26:58;99204.31;;;23.06;81.25
56671;BME280;42545;50.054;8.306;2023-07-29T12:29:25;99202.03;;;23.16;79.92
56671;BME280;42545;50.054;8.306;2023-07-29T12:31:57;99207.91;;;23.24;79.85
56671;BME280;42545;50.054;8.306;2023-07-29T12:34:25;99201.22;;;23.33;80.08
56671;BME280;42545;50.054;8.306;2023-07-29T12:36:53;99211.97;;;23.33;76.53
56671;BME280;42545;50.054;8.306;2023-07-29T12:39:21;99213.06;;;23.29;78.51
56671;BME280;42545;50.054;8.306;2023-07-29T12:41:50;99209.72;;;23.23;77.50
56671;BME280;42545;50.054;8.306;2023-07-29T12:44:20;99213.59;;;23.18;79.13
56671;BME280;42545;50.054;8.306;2023-07-29T12:46:46;99215.13;;;23.05;73.45
56671;BME280;42545;50.054;8.306;2023-07-29T12:49:13;99213.72;;;22.96;74.55
56671;BME280;42545;50.054;8.306;2023-07-29T12:51:40;99212.44;;;22.86;74.63
56671;BME280;42545;50.054;8.306;2023-07-29T12:54:07;99210.91;;;22.80;75.70